sensor_id;sensor_type;location;lat;lon;timestamp;temperature;humidity
58993;DHT22;44782;0.000;0.000;2023-06-04T00:00:43;22.50;47.80
58993;DHT22;44782;0.000;0.000;2023-06-04T00:02:58;22.40;47.70
58993;DHT22;44782;0.000;0.000;2023-06-04T00:05:14;22.40;47.80
58993;DHT22;44782;0.000;0.000;2023-06-04T00:07:32;22.40;47.80
58993;DHT22;44782;0.000;0.000;2023-06-04T00:09:48;22.40;47.70
58993;DHT22;44782;0.000;0.000;2023-06-04T00:12:04;22.40;47.70
58993;DHT22;44782;0.000;0.000;2023-06-04T00:14:19;22.40;47.80
58993;DHT22;44782;0.000;0.000;2023-06-04T00:16:35;22.40;47.80
58993;DHT22;44782;0.000;0.000;2023-06-04T00:18:51;22.40;47.80
58993;DHT22;44782;0.000;0.000;2023-06-04T00:21:06;22.40;47.80
58993;DHT22;44782;0.000;0.000;2023-06-04T00:23:22;22.40;47.80
58993;DHT22;44782;0.000;0.000;2023-06-04T00:25:40;22.40;47.80
58993;DHT22;44782;0.000;0.000;2023-06-04T00:27:56;22.30;47.70
58993;DHT22;44782;0.000;0.000;2023-06-04T00:30:12;22.30;47.80
58993;DHT22;44782;0.000;0.000;2023-06-04T00:32:28;22.30;47.80
58993;DHT22;44782;0.000;0.000;2023-06-04T00:34:50;22.30;47.80
58993;DHT22;44782;0.000;0.000;2023-06-04T00:37:08;22.30;47.70
58993;DHT22;44782;0.000;0.000;2023-06-04T00:39:24;22.30;47.80
58993;DHT22;44782;0.000;0.000;2023-06-04T00:41:40;22.30;47.80
58993;DHT22;44782;0.000;0.000;2023-06-04T00:43:55;22.30;47.80
58993;DHT22;44782;0.000;0.000;2023-06-04T00:46:12;22.30;47.80
58993;DHT22;44782;0.000;0.000;2023-06-04T00:48:33;22.30;47.80
58993;DHT22;44782;0.000;0.000;2023-06-04T00:50:49;22.20;47.70
58993;DHT22;44782;0.000;0.000;2023-06-04T00:53:06;22.30;47.80
58993;DHT22;44782;0.000;0.000;2023-06-04T00:55:21;22.20;47.70
58993;DHT22;44782;0.000;0.000;2023-06-04T00:57:40;22.20;47.80
58993;DHT22;44782;0.000;0.000;2023-06-04T00:59:55;22.20;47.70
58993;DHT22;44782;0.000;0.000;2023-06-04T01:02:13;22.20;47.80
58993;DHT22;44782;0.000;0.000;2023-06-04T01:04:34;22.20;47.70
58993;DHT22;44782;0.000;0.000;2023-06-04T01:06:53;22.20;47.80
58993;DHT22;44782;0.000;0.000;2023-06-04T01:09:10;22.20;47.80
58993;DHT22;44782;0.000;0.000;2023-06-04T01:11:34;22.20;47.80
58993;DHT22;44782;0.000;0.000;2023-06-04T01:13:50;22.20;47.70
58993;DHT22;44782;0.000;0.000;2023-06-04T01:16:06;22.20;47.70
58993;DHT22;44782;0.000;0.000;2023-06-04T01:18:27;22.20;47.80
58993;DHT22;44782;0.000;0.000;2023-06-04T01:20:44;22.20;47.70
58993;DHT22;44782;0.000;0.000;2023-06-04T01:25:41;22.20;47.70
58993;DHT22;44782;0.000;0.000;2023-06-04T01:27:59;22.10;47.80
58993;DHT22;44782;0.000;0.000;2023-06-04T01:30:17;22.10;47.70
58993;DHT22;44782;0.000;0.000;2023-06-04T01:32:33;22.10;47.80
58993;DHT22;44782;0.000;0.000;2023-06-04T01:34:49;22.10;47.80
58993;DHT22;44782;0.000;0.000;2023-06-04T01:37:05;22.10;47.80
58993;DHT22;44782;0.000;0.000;2023-06-04T01:39:21;22.10;47.70
58993;DHT22;44782;0.000;0.000;2023-06-04T01:41:36;22.10;47.70
58993;DHT22;44782;0.000;0.000;2023-06-04T01:43:52;22.10;47.70
58993;DHT22;44782;0.000;0.000;2023-06-04T01:46:08;22.10;47.80
58993;DHT22;44782;0.000;0.000;2023-06-04T01:48:23;22.00;47.70
58993;DHT22;44782;0.000;0.000;2023-06-04T01:50:39;22.10;47.80
58993;DHT22;44782;0.000;0.000;2023-06-04T01:52:54;22.00;47.70
58993;DHT22;44782;0.000;0.000;2023-06-04T01:55:16;22.00;47.70
58993;DHT22;44782;0.000;0.000;2023-06-04T01:57:32;22.00;47.60
58993;DHT22;44782;0.000;0.000;2023-06-04T01:59:49;22.00;48.40
58993;DHT22;44782;0.000;0.000;2023-06-04T02:02:04;22.00;47.70
58993;DHT22;44782;0.000;0.000;2023-06-04T02:04:20;22.00;47.70
58993;DHT22;44782;0.000;0.000;2023-06-04T02:06:36;22.00;47.70
58993;DHT22;44782;0.000;0.000;2023-06-04T02:08:52;22.00;47.70
58993;DHT22;44782;0.000;0.000;2023-06-04T02:11:09;22.00;47.70
58993;DHT22;44782;0.000;0.000;2023-06-04T02:13:25;22.00;47.80
58993;DHT22;44782;0.000;0.000;2023-06-04T02:15:41;22.00;47.80
58993;DHT22;44782;0.000;0.000;2023-06-04T02:17:58;22.00;47.70
58993;DHT22;44782;0.000;0.000;2023-06-04T02:20:14;22.00;47.70
58993;DHT22;44782;0.000;0.000;2023-06-04T02:22:30;22.00;47.70
58993;DHT22;44782;0.000;0.000;2023-06-04T02:24:46;22.00;47.80
58993;DHT22;44782;0.000;0.000;2023-06-04T02:27:03;21.90;47.70
58993;DHT22;44782;0.000;0.000;2023-06-04T02:29:19;21.90;47.70
58993;DHT22;44782;0.000;0.000;2023-06-04T02:31:34;21.90;47.70
58993;DHT22;44782;0.000;0.000;2023-06-04T02:33:50;21.90;47.70
58993;DHT22;44782;0.000;0.000;2023-06-04T02:36:06;21.90;47.80
58993;DHT22;44782;0.000;0.000;2023-06-04T02:38:21;21.90;47.70
58993;DHT22;44782;0.000;0.000;2023-06-04T02:40:38;21.90;47.70
58993;DHT22;44782;0.000;0.000;2023-06-04T02:42:54;21.90;47.70
58993;DHT22;44782;0.000;0.000;2023-06-04T02:45:10;21.90;47.70
58993;DHT22;44782;0.000;0.000;2023-06-04T02:47:27;21.80;47.70
58993;DHT22;44782;0.000;0.000;2023-06-04T02:49:42;21.90;47.70
58993;DHT22;44782;0.000;0.000;2023-06-04T02:51:58;21.80;47.70
58993;DHT22;44782;0.000;0.000;2023-06-04T02:54:14;21.80;47.70
58993;DHT22;44782;0.000;0.000;2023-06-04T02:56:30;21.80;47.70
58993;DHT22;44782;0.000;0.000;2023-06-04T02:58:53;21.80;47.70
58993;DHT22;44782;0.000;0.000;2023-06-04T03:01:18;21.80;47.60
58993;DHT22;44782;0.000;0.000;2023-06-04T03:03:35;21.80;47.70
58993;DHT22;44782;0.000;0.000;2023-06-04T03:05:51;21.80;47.60
58993;DHT22;44782;0.000;0.000;2023-06-04T03:10:25;21.80;47.70
58993;DHT22;44782;0.000;0.000;2023-06-04T03:12:44;21.80;47.70
58993;DHT22;44782;0.000;0.000;2023-06-04T03:15:00;21.80;47.70
58993;DHT22;44782;0.000;0.000;2023-06-04T03:17:16;21.80;47.70
58993;DHT22;44782;0.000;0.000;2023-06-04T03:19:31;21.80;47.70
58993;DHT22;44782;0.000;0.000;2023-06-04T03:21:47;21.80;47.70
58993;DHT22;44782;0.000;0.000;2023-06-04T03:24:06;21.80;47.70
58993;DHT22;44782;0.000;0.000;2023-06-04T03:26:22;21.80;47.60
58993;DHT22;44782;0.000;0.000;2023-06-04T03:28:38;21.80;47.70
58993;DHT22;44782;0.000;0.000;2023-06-04T03:30:53;21.70;47.60
58993;DHT22;44782;0.000;0.000;2023-06-04T03:33:09;21.70;47.60
58993;DHT22;44782;0.000;0.000;2023-06-04T03:35:25;21.70;47.60
58993;DHT22;44782;0.000;0.000;2023-06-04T03:37:41;21.70;47.60
58993;DHT22;44782;0.000;0.000;2023-06-04T03:39:56;21.70;47.60
58993;DHT22;44782;0.000;0.000;2023-06-04T03:42:12;21.70;47.60
58993;DHT22;44782;0.000;0.000;2023-06-04T03:44:27;21.70;47.60
58993;DHT22;44782;0.000;0.000;2023-06-04T03:46:44;21.70;47.60
58993;DHT22;44782;0.000;0.000;2023-06-04T03:49:00;21.70;47.60
58993;DHT22;44782;0.000;0.000;2023-06-04T03:51:16;21.70;47.60
58993;DHT22;44782;0.000;0.000;2023-06-04T03:53:32;21.70;48.30
58993;DHT22;44782;0.000;0.000;2023-06-04T03:55:47;21.70;47.60
58993;DHT22;44782;0.000;0.000;2023-06-04T03:58:03;21.70;47.60
58993;DHT22;44782;0.000;0.000;2023-06-04T04:00:18;21.70;47.60
58993;DHT22;44782;0.000;0.000;2023-06-04T04:02:35;21.60;47.50
58993;DHT22;44782;0.000;0.000;2023-06-04T04:04:51;21.60;47.60
58993;DHT22;44782;0.000;0.000;2023-06-04T04:07:09;21.60;47.60
58993;DHT22;44782;0.000;0.000;2023-06-04T04:09:26;21.60;48.20
58993;DHT22;44782;0.000;0.000;2023-06-04T04:11:41;21.60;47.60
58993;DHT22;44782;0.000;0.000;2023-06-04T04:13:57;21.60;47.60
58993;DHT22;44782;0.000;0.000;2023-06-04T04:16:13;21.60;47.50
58993;DHT22;44782;0.000;0.000;2023-06-04T04:18:33;21.60;47.60
58993;DHT22;44782;0.000;0.000;2023-06-04T04:20:49;21.60;47.50
58993;DHT22;44782;0.000;0.000;2023-06-04T04:23:04;21.60;47.60
58993;DHT22;44782;0.000;0.000;2023-06-04T04:25:21;21.60;47.60
58993;DHT22;44782;0.000;0.000;2023-06-04T04:27:37;21.60;47.60
58993;DHT22;44782;0.000;0.000;2023-06-04T04:29:56;21.60;47.60
58993;DHT22;44782;0.000;0.000;2023-06-04T04:32:15;21.50;47.50
58993;DHT22;44782;0.000;0.000;2023-06-04T04:34:32;21.60;47.50
58993;DHT22;44782;0.000;0.000;2023-06-04T04:36:47;21.60;47.50
58993;DHT22;44782;0.000;0.000;2023-06-04T04:39:07;21.50;47.50
58993;DHT22;44782;0.000;0.000;2023-06-04T04:41:25;21.60;47.50
58993;DHT22;44782;0.000;0.000;2023-06-04T04:43:41;21.50;47.50
58993;DHT22;44782;0.000;0.000;2023-06-04T04:45:58;21.50;47.50
58993;DHT22;44782;0.000;0.000;2023-06-04T04:48:14;21.50;47.50
58993;DHT22;44782;0.000;0.000;2023-06-04T04:50:33;21.50;47.50
58993;DHT22;44782;0.000;0.000;2023-06-04T04:52:48;21.50;47.50
58993;DHT22;44782;0.000;0.000;2023-06-04T04:55:04;21.60;47.50
58993;DHT22;44782;0.000;0.000;2023-06-04T04:57:20;21.50;47.50
58993;DHT22;44782;0.000;0.000;2023-06-04T04:59:36;21.50;47.50
58993;DHT22;44782;0.000;0.000;2023-06-04T05:01:51;21.50;47.50
58993;DHT22;44782;0.000;0.000;2023-06-04T05:04:07;21.50;47.50
58993;DHT22;44782;0.000;0.000;2023-06-04T05:06:26;21.60;47.50
58993;DHT22;44782;0.000;0.000;2023-06-04T05:08:41;21.50;47.50
58993;DHT22;44782;0.000;0.000;2023-06-04T05:10:57;21.50;47.50
58993;DHT22;44782;0.000;0.000;2023-06-04T05:13:13;21.50;47.50
58993;DHT22;44782;0.000;0.000;2023-06-04T05:15:28;21.50;48.20
58993;DHT22;44782;0.000;0.000;2023-06-04T05:17:45;21.50;47.50
58993;DHT22;44782;0.000;0.000;2023-06-04T05:20:02;21.50;47.50
58993;DHT22;44782;0.000;0.000;2023-06-04T05:22:20;21.50;47.50
58993;DHT22;44782;0.000;0.000;2023-06-04T05:24:36;21.40;47.50
58993;DHT22;44782;0.000;0.000;2023-06-04T05:26:51;21.50;47.50
58993;DHT22;44782;0.000;0.000;2023-06-04T05:29:10;21.40;47.50
58993;DHT22;44782;0.000;0.000;2023-06-04T05:31:26;21.40;47.50
58993;DHT22;44782;0.000;0.000;2023-06-04T05:33:42;21.40;47.50
58993;DHT22;44782;0.000;0.000;2023-06-04T05:35:57;21.40;47.50
58993;DHT22;44782;0.000;0.000;2023-06-04T05:38:14;21.40;47.50
58993;DHT22;44782;0.000;0.000;2023-06-04T05:40:33;21.40;47.50
58993;DHT22;44782;0.000;0.000;2023-06-04T05:42:49;21.40;47.50
58993;DHT22;44782;0.000;0.000;2023-06-04T05:45:05;21.40;47.50
58993;DHT22;44782;0.000;0.000;2023-06-04T05:47:24;21.40;47.50
58993;DHT22;44782;0.000;0.000;2023-06-04T05:49:39;21.40;47.60
58993;DHT22;44782;0.000;0.000;2023-06-04T05:51:55;21.40;47.50
58993;DHT22;44782;0.000;0.000;2023-06-04T05:54:10;21.40;47.60
58993;DHT22;44782;0.000;0.000;2023-06-04T05:56:26;21.40;47.60
58993;DHT22;44782;0.000;0.000;2023-06-04T05:58:42;21.40;47.60
58993;DHT22;44782;0.000;0.000;2023-06-04T06:00:57;21.40;48.20
58993;DHT22;44782;0.000;0.000;2023-06-04T06:03:13;21.40;47.50
58993;DHT22;44782;0.000;0.000;2023-06-04T06:05:31;21.40;47.50
58993;DHT22;44782;0.000;0.000;2023-06-04T06:07:47;21.40;47.50
58993;DHT22;44782;0.000;0.000;2023-06-04T06:10:03;21.40;47.50
58993;DHT22;44782;0.000;0.000;2023-06-04T06:12:19;21.40;47.50
58993;DHT22;44782;0.000;0.000;2023-06-04T06:14:35;21.30;47.50
58993;DHT22;44782;0.000;0.000;2023-06-04T06:16:51;21.30;47.50
58993;DHT22;44782;0.000;0.000;2023-06-04T06:19:06;21.30;47.50
58993;DHT22;44782;0.000;0.000;2023-06-04T06:21:22;21.30;47.50
58993;DHT22;44782;0.000;0.000;2023-06-04T06:23:37;21.30;47.40
58993;DHT22;44782;0.000;0.000;2023-06-04T06:25:53;21.30;47.40
58993;DHT22;44782;0.000;0.000;2023-06-04T06:28:09;21.30;47.40
58993;DHT22;44782;0.000;0.000;2023-06-04T06:30:25;21.30;47.40
58993;DHT22;44782;0.000;0.000;2023-06-04T06:32:40;21.30;47.40
58993;DHT22;44782;0.000;0.000;2023-06-04T06:34:56;21.30;47.40
58993;DHT22;44782;0.000;0.000;2023-06-04T06:37:11;21.30;47.40
58993;DHT22;44782;0.000;0.000;2023-06-04T06:39:27;21.30;47.40
58993;DHT22;44782;0.000;0.000;2023-06-04T06:41:43;21.30;47.40
58993;DHT22;44782;0.000;0.000;2023-06-04T06:43:58;21.30;47.40
58993;DHT22;44782;0.000;0.000;2023-06-04T06:46:14;21.20;47.30
58993;DHT22;44782;0.000;0.000;2023-06-04T06:48:33;21.20;47.40
58993;DHT22;44782;0.000;0.000;2023-06-04T06:50:48;21.30;47.30
58993;DHT22;44782;0.000;0.000;2023-06-04T06:53:04;21.20;47.40
58993;DHT22;44782;0.000;0.000;2023-06-04T06:55:20;21.20;47.40
58993;DHT22;44782;0.000;0.000;2023-06-04T06:57:36;21.20;47.40
58993;DHT22;44782;0.000;0.000;2023-06-04T06:59:51;21.20;47.30
58993;DHT22;44782;0.000;0.000;2023-06-04T07:02:09;21.20;47.30
58993;DHT22;44782;0.000;0.000;2023-06-04T07:04:24;21.20;47.40
58993;DHT22;44782;0.000;0.000;2023-06-04T07:06:40;21.20;47.30
58993;DHT22;44782;0.000;0.000;2023-06-04T07:08:56;21.20;47.30
58993;DHT22;44782;0.000;0.000;2023-06-04T07:11:12;21.20;47.30
58993;DHT22;44782;0.000;0.000;2023-06-04T07:13:28;21.20;47.30
58993;DHT22;44782;0.000;0.000;2023-06-04T07:15:43;21.20;47.30
58993;DHT22;44782;0.000;0.000;2023-06-04T07:17:59;21.20;47.30
58993;DHT22;44782;0.000;0.000;2023-06-04T07:20:15;21.20;47.30
58993;DHT22;44782;0.000;0.000;2023-06-04T07:22:30;21.20;47.30
58993;DHT22;44782;0.000;0.000;2023-06-04T07:24:46;21.20;47.30
58993;DHT22;44782;0.000;0.000;2023-06-04T07:27:02;21.20;47.30
58993;DHT22;44782;0.000;0.000;2023-06-04T07:29:17;21.20;47.30
58993;DHT22;44782;0.000;0.000;2023-06-04T07:31:33;21.30;47.30
58993;DHT22;44782;0.000;0.000;2023-06-04T07:33:49;21.20;47.30
58993;DHT22;44782;0.000;0.000;2023-06-04T07:36:04;21.30;47.50
58993;DHT22;44782;0.000;0.000;2023-06-04T07:38:20;21.20;47.50
58993;DHT22;44782;0.000;0.000;2023-06-04T07:40:36;21.20;47.80
58993;DHT22;44782;0.000;0.000;2023-06-04T07:42:51;21.30;48.30
58993;DHT22;44782;0.000;0.000;2023-06-04T07:45:08;21.30;48.50
58993;DHT22;44782;0.000;0.000;2023-06-04T07:47:24;21.30;48.50
58993;DHT22;44782;0.000;0.000;2023-06-04T07:49:40;21.30;48.40
58993;DHT22;44782;0.000;0.000;2023-06-04T07:51:55;21.30;48.50
58993;DHT22;44782;0.000;0.000;2023-06-04T07:54:11;21.30;48.70
58993;DHT22;44782;0.000;0.000;2023-06-04T07:56:28;21.30;48.70
58993;DHT22;44782;0.000;0.000;2023-06-04T07:58:44;21.30;48.80
58993;DHT22;44782;0.000;0.000;2023-06-04T08:01:02;21.40;49.00
58993;DHT22;44782;0.000;0.000;2023-06-04T08:03:17;21.30;48.90
58993;DHT22;44782;0.000;0.000;2023-06-04T08:05:36;21.30;49.00
58993;DHT22;44782;0.000;0.000;2023-06-04T08:07:51;21.30;49.00
58993;DHT22;44782;0.000;0.000;2023-06-04T08:10:09;21.40;49.00
58993;DHT22;44782;0.000;0.000;2023-06-04T08:12:25;21.40;49.10
58993;DHT22;44782;0.000;0.000;2023-06-04T08:14:40;21.40;49.20
58993;DHT22;44782;0.000;0.000;2023-06-04T08:16:56;21.40;49.20
58993;DHT22;44782;0.000;0.000;2023-06-04T08:19:12;21.40;49.00
58993;DHT22;44782;0.000;0.000;2023-06-04T08:21:28;21.40;49.10
58993;DHT22;44782;0.000;0.000;2023-06-04T08:23:44;21.40;49.10
58993;DHT22;44782;0.000;0.000;2023-06-04T08:26:00;21.40;49.00
58993;DHT22;44782;0.000;0.000;2023-06-04T08:28:19;21.40;49.00
58993;DHT22;44782;0.000;0.000;2023-06-04T08:30:35;21.40;49.00
58993;DHT22;44782;0.000;0.000;2023-06-04T08:32:51;21.40;49.00
58993;DHT22;44782;0.000;0.000;2023-06-04T08:35:07;21.40;49.00
58993;DHT22;44782;0.000;0.000;2023-06-04T08:37:23;21.40;49.00
58993;DHT22;44782;0.000;0.000;2023-06-04T08:39:40;21.40;49.60
58993;DHT22;44782;0.000;0.000;2023-06-04T08:42:00;21.40;48.80
58993;DHT22;44782;0.000;0.000;2023-06-04T08:44:18;21.40;48.80
58993;DHT22;44782;0.000;0.000;2023-06-04T08:46:38;21.40;48.80
58993;DHT22;44782;0.000;0.000;2023-06-04T08:49:00;21.40;48.70
58993;DHT22;44782;0.000;0.000;2023-06-04T08:51:16;21.40;48.70
58993;DHT22;44782;0.000;0.000;2023-06-04T08:53:32;21.40;48.60
58993;DHT22;44782;0.000;0.000;2023-06-04T08:55:50;21.40;48.60
58993;DHT22;44782;0.000;0.000;2023-06-04T08:58:09;21.40;48.50
58993;DHT22;44782;0.000;0.000;2023-06-04T09:00:26;21.50;48.50
58993;DHT22;44782;0.000;0.000;2023-06-04T09:02:41;21.40;48.50
58993;DHT22;44782;0.000;0.000;2023-06-04T09:04:58;21.40;48.40
58993;DHT22;44782;0.000;0.000;2023-06-04T09:07:14;21.40;48.40
58993;DHT22;44782;0.000;0.000;2023-06-04T09:09:31;21.40;48.40
58993;DHT22;44782;0.000;0.000;2023-06-04T09:11:57;21.40;48.30
58993;DHT22;44782;0.000;0.000;2023-06-04T09:14:14;21.50;48.20
58993;DHT22;44782;0.000;0.000;2023-06-04T09:16:31;21.50;48.40
58993;DHT22;44782;0.000;0.000;2023-06-04T09:18:53;21.40;48.30
58993;DHT22;44782;0.000;0.000;2023-06-04T09:21:09;21.40;48.30
58993;DHT22;44782;0.000;0.000;2023-06-04T09:23:25;21.40;48.30
58993;DHT22;44782;0.000;0.000;2023-06-04T09:25:42;21.40;48.20
58993;DHT22;44782;0.000;0.000;2023-06-04T09:28:06;21.40;48.10
58993;DHT22;44782;0.000;0.000;2023-06-04T09:30:23;21.50;48.00
58993;DHT22;44782;0.000;0.000;2023-06-04T09:32:38;21.40;48.10
58993;DHT22;44782;0.000;0.000;2023-06-04T09:34:56;21.40;48.10
58993;DHT22;44782;0.000;0.000;2023-06-04T09:37:16;21.50;48.10
58993;DHT22;44782;0.000;0.000;2023-06-04T09:39:35;21.50;48.00
58993;DHT22;44782;0.000;0.000;2023-06-04T09:42:01;21.50;48.10
58993;DHT22;44782;0.000;0.000;2023-06-04T09:44:17;21.50;47.80
58993;DHT22;44782;0.000;0.000;2023-06-04T09:46:33;21.50;48.10
58993;DHT22;44782;0.000;0.000;2023-06-04T09:48:58;21.50;48.00
58993;DHT22;44782;0.000;0.000;2023-06-04T09:51:15;21.50;48.00
58993;DHT22;44782;0.000;0.000;2023-06-04T09:53:33;21.50;48.00
58993;DHT22;44782;0.000;0.000;2023-06-04T09:55:58;21.50;47.90
58993;DHT22;44782;0.000;0.000;2023-06-04T09:58:14;21.50;47.60
58993;DHT22;44782;0.000;0.000;2023-06-04T10:00:30;21.50;47.90
58993;DHT22;44782;0.000;0.000;2023-06-04T10:02:46;21.50;47.90
58993;DHT22;44782;0.000;0.000;2023-06-04T10:05:03;21.50;47.80
58993;DHT22;44782;0.000;0.000;2023-06-04T10:07:20;21.50;47.80
58993;DHT22;44782;0.000;0.000;2023-06-04T10:09:38;21.50;47.80
58993;DHT22;44782;0.000;0.000;2023-06-04T10:12:01;21.50;47.70
58993;DHT22;44782;0.000;0.000;2023-06-04T10:14:27;21.50;47.90
58993;DHT22;44782;0.000;0.000;2023-06-04T10:16:47;21.50;47.70
58993;DHT22;44782;0.000;0.000;2023-06-04T10:19:04;21.50;48.00
58993;DHT22;44782;0.000;0.000;2023-06-04T10:21:23;21.50;48.10
58993;DHT22;44782;0.000;0.000;2023-06-04T10:23:40;21.50;48.00
58993;DHT22;44782;0.000;0.000;2023-06-04T10:25:57;21.50;47.90
58993;DHT22;44782;0.000;0.000;2023-06-04T10:28:13;21.50;47.80
58993;DHT22;44782;0.000;0.000;2023-06-04T10:30:32;21.50;47.80
58993;DHT22;44782;0.000;0.000;2023-06-04T10:32:48;21.50;47.80
58993;DHT22;44782;0.000;0.000;2023-06-04T10:35:05;21.50;47.80
58993;DHT22;44782;0.000;0.000;2023-06-04T10:37:26;21.50;47.80
58993;DHT22;44782;0.000;0.000;2023-06-04T10:39:51;21.50;47.70
58993;DHT22;44782;0.000;0.000;2023-06-04T10:42:07;21.50;47.60
58993;DHT22;44782;0.000;0.000;2023-06-04T10:44:23;21.50;47.60
58993;DHT22;44782;0.000;0.000;2023-06-04T10:46:40;21.50;47.60
58993;DHT22;44782;0.000;0.000;2023-06-04T10:48:58;21.50;47.60
58993;DHT22;44782;0.000;0.000;2023-06-04T10:51:28;21.50;47.50
58993;DHT22;44782;0.000;0.000;2023-06-04T10:53:45;21.50;47.50
58993;DHT22;44782;0.000;0.000;2023-06-04T10:56:01;21.50;47.40
58993;DHT22;44782;0.000;0.000;2023-06-04T10:58:17;21.50;47.40
58993;DHT22;44782;0.000;0.000;2023-06-04T11:00:37;21.50;47.30
58993;DHT22;44782;0.000;0.000;2023-06-04T11:02:56;21.50;47.10
58993;DHT22;44782;0.000;0.000;2023-06-04T11:05:12;21.50;47.00
58993;DHT22;44782;0.000;0.000;2023-06-04T11:07:28;21.50;47.10
58993;DHT22;44782;0.000;0.000;2023-06-04T11:09:50;21.50;47.10
58993;DHT22;44782;0.000;0.000;2023-06-04T11:12:06;21.50;46.70
58993;DHT22;44782;0.000;0.000;2023-06-04T11:14:22;21.50;46.90
58993;DHT22;44782;0.000;0.000;2023-06-04T11:16:38;21.50;46.80
58993;DHT22;44782;0.000;0.000;2023-06-04T11:18:55;21.50;46.70
58993;DHT22;44782;0.000;0.000;2023-06-04T11:21:11;21.50;46.50
58993;DHT22;44782;0.000;0.000;2023-06-04T11:23:30;21.50;46.40
58993;DHT22;44782;0.000;0.000;2023-06-04T11:25:46;21.50;46.40
58993;DHT22;44782;0.000;0.000;2023-06-04T11:28:01;21.50;47.00
58993;DHT22;44782;0.000;0.000;2023-06-04T11:30:17;21.50;46.30
58993;DHT22;44782;0.000;0.000;2023-06-04T11:32:33;21.50;46.20
58993;DHT22;44782;0.000;0.000;2023-06-04T11:34:48;21.50;46.20
58993;DHT22;44782;0.000;0.000;2023-06-04T11:37:08;21.60;46.10
58993;DHT22;44782;0.000;0.000;2023-06-04T11:39:34;21.60;45.90
58993;DHT22;44782;0.000;0.000;2023-06-04T11:41:50;21.60;46.30
58993;DHT22;44782;0.000;0.000;2023-06-04T11:44:06;21.50;45.90
58993;DHT22;44782;0.000;0.000;2023-06-04T11:46:23;21.60;46.00
58993;DHT22;44782;0.000;0.000;2023-06-04T11:48:38;21.60;45.80
58993;DHT22;44782;0.000;0.000;2023-06-04T11:50:54;21.60;45.80
58993;DHT22;44782;0.000;0.000;2023-06-04T11:53:10;21.60;45.80
58993;DHT22;44782;0.000;0.000;2023-06-04T11:55:26;21.60;45.80
58993;DHT22;44782;0.000;0.000;2023-06-04T11:57:42;21.60;45.60
58993;DHT22;44782;0.000;0.000;2023-06-04T11:59:58;21.60;45.60
58993;DHT22;44782;0.000;0.000;2023-06-04T12:02:14;21.60;45.60
58993;DHT22;44782;0.000;0.000;2023-06-04T12:04:30;21.60;45.40
58993;DHT22;44782;0.000;0.000;2023-06-04T12:06:57;21.60;45.40
58993;DHT22;44782;0.000;0.000;2023-06-04T12:09:20;21.60;44.80
58993;DHT22;44782;0.000;0.000;2023-06-04T12:11:36;21.60;44.70
58993;DHT22;44782;0.000;0.000;2023-06-04T12:13:57;21.60;45.00
58993;DHT22;44782;0.000;0.000;2023-06-04T12:16:14;21.60;44.60
58993;DHT22;44782;0.000;0.000;2023-06-04T12:18:30;21.70;44.70
58993;DHT22;44782;0.000;0.000;2023-06-04T12:20:46;21.60;44.50
58993;DHT22;44782;0.000;0.000;2023-06-04T12:23:02;21.60;44.50
58993;DHT22;44782;0.000;0.000;2023-06-04T12:25:25;21.60;44.30
58993;DHT22;44782;0.000;0.000;2023-06-04T12:27:47;21.70;43.60
58993;DHT22;44782;0.000;0.000;2023-06-04T12:30:05;21.70;43.70
58993;DHT22;44782;0.000;0.000;2023-06-04T12:32:22;21.70;44.00
58993;DHT22;44782;0.000;0.000;2023-06-04T12:34:39;21.70;44.00
58993;DHT22;44782;0.000;0.000;2023-06-04T12:36:55;21.70;43.90
58993;DHT22;44782;0.000;0.000;2023-06-04T12:39:11;21.70;43.80
58993;DHT22;44782;0.000;0.000;2023-06-04T12:41:30;21.70;43.70
58993;DHT22;44782;0.000;0.000;2023-06-04T12:43:46;21.70;43.30
58993;DHT22;44782;0.000;0.000;2023-06-04T12:46:02;21.70;43.60
58993;DHT22;44782;0.000;0.000;2023-06-04T12:48:17;21.70;43.40
58993;DHT22;44782;0.000;0.000;2023-06-04T12:50:33;21.70;43.30
58993;DHT22;44782;0.000;0.000;2023-06-04T12:52:49;21.70;43.20
58993;DHT22;44782;0.000;0.000;2023-06-04T12:55:05;21.70;43.10
58993;DHT22;44782;0.000;0.000;2023-06-04T12:57:21;21.70;42.90
58993;DHT22;44782;0.000;0.000;2023-06-04T12:59:37;21.70;42.80
58993;DHT22;44782;0.000;0.000;2023-06-04T13:01:53;21.70;42.70
58993;DHT22;44782;0.000;0.000;2023-06-04T13:04:09;21.70;42.60
58993;DHT22;44782;0.000;0.000;2023-06-04T13:06:24;21.70;42.60
58993;DHT22;44782;0.000;0.000;2023-06-04T13:08:40;21.70;42.50
58993;DHT22;44782;0.000;0.000;2023-06-04T13:10:56;21.70;42.30
58993;DHT22;44782;0.000;0.000;2023-06-04T13:13:11;21.80;42.30
58993;DHT22;44782;0.000;0.000;2023-06-04T13:15:27;21.70;42.20
58993;DHT22;44782;0.000;0.000;2023-06-04T13:17:44;21.70;42.20
58993;DHT22;44782;0.000;0.000;2023-06-04T13:20:00;21.80;42.00
58993;DHT22;44782;0.000;0.000;2023-06-04T13:22:16;21.80;41.90
58993;DHT22;44782;0.000;0.000;2023-06-04T13:24:31;21.80;41.90
58993;DHT22;44782;0.000;0.000;2023-06-04T13:26:47;21.80;41.80
58993;DHT22;44782;0.000;0.000;2023-06-04T13:29:03;21.80;41.70
58993;DHT22;44782;0.000;0.000;2023-06-04T13:31:18;21.80;41.60
58993;DHT22;44782;0.000;0.000;2023-06-04T13:33:34;21.80;41.60
58993;DHT22;44782;0.000;0.000;2023-06-04T13:35:50;21.80;41.40
58993;DHT22;44782;0.000;0.000;2023-06-04T13:38:06;21.80;41.30
58993;DHT22;44782;0.000;0.000;2023-06-04T13:40:21;21.80;41.30
58993;DHT22;44782;0.000;0.000;2023-06-04T13:42:37;21.80;41.20
58993;DHT22;44782;0.000;0.000;2023-06-04T13:44:53;21.80;41.10
58993;DHT22;44782;0.000;0.000;2023-06-04T13:47:08;21.80;41.10
58993;DHT22;44782;0.000;0.000;2023-06-04T13:49:24;21.80;41.00
58993;DHT22;44782;0.000;0.000;2023-06-04T13:51:40;21.80;41.00
58993;DHT22;44782;0.000;0.000;2023-06-04T13:53:56;21.90;41.00
58993;DHT22;44782;0.000;0.000;2023-06-04T13:56:12;21.80;40.90
58993;DHT22;44782;0.000;0.000;2023-06-04T13:58:28;21.90;41.00
58993;DHT22;44782;0.000;0.000;2023-06-04T14:00:43;21.90;41.00
58993;DHT22;44782;0.000;0.000;2023-06-04T14:02:59;21.90;40.90
58993;DHT22;44782;0.000;0.000;2023-06-04T14:05:15;21.90;40.80
58993;DHT22;44782;0.000;0.000;2023-06-04T14:07:31;21.90;40.80
58993;DHT22;44782;0.000;0.000;2023-06-04T14:09:47;21.90;40.70
58993;DHT22;44782;0.000;0.000;2023-06-04T14:12:04;21.90;40.60
58993;DHT22;44782;0.000;0.000;2023-06-04T14:14:21;21.90;40.70
58993;DHT22;44782;0.000;0.000;2023-06-04T14:16:37;21.90;40.50
58993;DHT22;44782;0.000;0.000;2023-06-04T14:18:52;21.90;40.50
58993;DHT22;44782;0.000;0.000;2023-06-04T14:21:08;21.90;40.50
58993;DHT22;44782;0.000;0.000;2023-06-04T14:23:24;22.00;40.50
58993;DHT22;44782;0.000;0.000;2023-06-04T14:25:40;22.00;40.40
58993;DHT22;44782;0.000;0.000;2023-06-04T14:27:55;22.00;40.30
58993;DHT22;44782;0.000;0.000;2023-06-04T14:30:11;22.00;40.30
58993;DHT22;44782;0.000;0.000;2023-06-04T14:32:27;22.00;40.30
58993;DHT22;44782;0.000;0.000;2023-06-04T14:34:43;22.00;40.90
58993;DHT22;44782;0.000;0.000;2023-06-04T14:36:59;22.00;40.10
58993;DHT22;44782;0.000;0.000;2023-06-04T14:39:15;22.00;40.10
58993;DHT22;44782;0.000;0.000;2023-06-04T14:41:31;22.00;40.10